sensor_id;sensor_type;location;lat;lon;timestamp;noise_LAeq;noise_LA_min;noise_LA_max;noise_LA01;noise_LA95
17594;Laerm;8916;47.086;15.920;2024-02-26T00:00:52;49.41;48.29;50.71;;
17594;Laerm;8916;47.086;15.920;2024-02-26T00:03:22;49.41;48.13;50.55;;
17594;Laerm;8916;47.086;15.920;2024-02-26T00:05:51;49.40;48.42;50.66;;
17594;Laerm;8916;47.086;15.920;2024-02-26T00:08:20;49.42;48.37;50.48;;
17594;Laerm;8916;47.086;15.920;2024-02-26T00:10:50;49.41;48.42;50.38;;
17594;Laerm;8916;47.086;15.920;2024-02-26T00:13:20;49.41;48.34;50.56;;
17594;Laerm;8916;47.086;15.920;2024-02-26T00:15:50;49.42;48.00;50.40;;
17594;Laerm;8916;47.086;15.920;2024-02-26T00:18:19;49.42;48.32;50.58;;
17594;Laerm;8916;47.086;15.920;2024-02-26T00:20:48;49.40;48.36;50.55;;
17594;Laerm;8916;47.086;15.920;2024-02-26T00:23:17;49.41;48.31;50.54;;
17594;Laerm;8916;47.086;15.920;2024-02-26T00:25:46;49.41;48.28;50.65;;
17594;Laerm;8916;47.086;15.920;2024-02-26T00:28:15;49.41;48.23;50.53;;
17594;Laerm;8916;47.086;15.920;2024-02-26T00:30:45;49.40;48.15;50.41;;
17594;Laerm;8916;47.086;15.920;2024-02-26T00:33:16;49.41;48.25;50.46;;
17594;Laerm;8916;47.086;15.920;2024-02-26T00:35:46;49.41;48.42;50.44;;
17594;Laerm;8916;47.086;15.920;2024-02-26T00:38:15;49.41;48.37;50.50;;
17594;Laerm;8916;47.086;15.920;2024-02-26T00:40:44;49.41;48.25;50.46;;
17594;Laerm;8916;47.086;15.920;2024-02-26T00:43:13;49.40;48.25;50.56;;
17594;Laerm;8916;47.086;15.920;2024-02-26T00:45:42;49.40;48.23;50.42;;
17594;Laerm;8916;47.086;15.920;2024-02-26T00:48:12;49.40;48.18;50.55;;
17594;Laerm;8916;47.086;15.920;2024-02-26T00:50:42;49.41;48.36;50.58;;
17594;Laerm;8916;47.086;15.920;2024-02-26T00:53:11;49.40;48.39;50.57;;
17594;Laerm;8916;47.086;15.920;2024-02-26T00:55:40;49.41;48.05;50.56;;
17594;Laerm;8916;47.086;15.920;2024-02-26T00:58:09;49.40;48.37;50.56;;
17594;Laerm;8916;47.086;15.920;2024-02-26T01:00:38;49.40;48.20;50.41;;
17594;Laerm;8916;47.086;15.920;2024-02-26T01:03:07;49.40;48.13;50.41;;
17594;Laerm;8916;47.086;15.920;2024-02-26T01:05:40;49.39;48.29;50.56;;
17594;Laerm;8916;47.086;15.920;2024-02-26T01:08:09;49.40;48.28;50.71;;
17594;Laerm;8916;47.086;15.920;2024-02-26T01:10:38;49.38;48.37;50.52;;
17594;Laerm;8916;47.086;15.920;2024-02-26T01:13:07;49.39;48.23;50.42;;
17594;Laerm;8916;47.086;15.920;2024-02-26T01:15:36;49.40;48.39;50.43;;
17594;Laerm;8916;47.086;15.920;2024-02-26T01:18:05;49.40;48.37;50.43;;
17594;Laerm;8916;47.086;15.920;2024-02-26T01:20:34;49.41;48.39;50.43;;
17594;Laerm;8916;47.086;15.920;2024-02-26T01:23:05;49.40;48.32;50.59;;
17594;Laerm;8916;47.086;15.920;2024-02-26T01:25:35;49.42;48.37;50.58;;
17594;Laerm;8916;47.086;15.920;2024-02-26T01:28:05;49.42;48.34;50.47;;
17594;Laerm;8916;47.086;15.920;2024-02-26T01:30:34;49.42;48.23;50.41;;
17594;Laerm;8916;47.086;15.920;2024-02-26T01:33:03;49.41;48.29;50.44;;
17594;Laerm;8916;47.086;15.920;2024-02-26T01:35:32;49.41;48.34;50.52;;
17594;Laerm;8916;47.086;15.920;2024-02-26T01:38:01;49.41;48.32;50.44;;
17594;Laerm;8916;47.086;15.920;2024-02-26T01:40:32;49.42;48.23;50.55;;
17594;Laerm;8916;47.086;15.920;2024-02-26T01:43:02;49.42;48.08;50.61;;
17594;Laerm;8916;47.086;15.920;2024-02-26T01:45:31;49.42;48.13;50.55;;
17594;Laerm;8916;47.086;15.920;2024-02-26T01:48:00;49.43;48.37;50.55;;
17594;Laerm;8916;47.086;15.920;2024-02-26T01:50:30;49.42;48.46;50.56;;
17594;Laerm;8916;47.086;15.920;2024-02-26T01:53:02;49.42;48.40;50.72;;
17594;Laerm;8916;47.086;15.920;2024-02-26T01:55:32;49.42;48.21;50.63;;
17594;Laerm;8916;47.086;15.920;2024-02-26T01:58:02;49.42;48.13;50.50;;
17594;Laerm;8916;47.086;15.920;2024-02-26T02:00:31;49.43;48.40;50.41;;
17594;Laerm;8916;47.086;15.920;2024-02-26T02:03:01;49.42;48.26;50.67;;
17594;Laerm;8916;47.086;15.920;2024-02-26T02:05:31;49.43;48.28;50.49;;
17594;Laerm;8916;47.086;15.920;2024-02-26T02:08:02;49.43;48.37;50.63;;
17594;Laerm;8916;47.086;15.920;2024-02-26T02:10:34;49.43;48.52;50.92;;
17594;Laerm;8916;47.086;15.920;2024-02-26T02:13:04;49.42;48.25;50.55;;
17594;Laerm;8916;47.086;15.920;2024-02-26T02:15:33;49.43;48.34;50.46;;
17594;Laerm;8916;47.086;15.920;2024-02-26T02:18:02;49.43;48.36;50.53;;
17594;Laerm;8916;47.086;15.920;2024-02-26T02:20:33;49.43;48.45;50.45;;
17594;Laerm;8916;47.086;15.920;2024-02-26T02:23:03;49.43;48.31;50.58;;
17594;Laerm;8916;47.086;15.920;2024-02-26T02:25:32;49.43;48.42;50.50;;
17594;Laerm;8916;47.086;15.920;2024-02-26T02:28:03;49.45;47.91;50.50;;
17594;Laerm;8916;47.086;15.920;2024-02-26T02:30:33;49.44;48.29;50.50;;
17594;Laerm;8916;47.086;15.920;2024-02-26T02:33:04;49.45;48.38;50.60;;
17594;Laerm;8916;47.086;15.920;2024-02-26T02:35:35;49.45;48.42;50.47;;
17594;Laerm;8916;47.086;15.920;2024-02-26T02:38:04;49.44;48.16;50.60;;
17594;Laerm;8916;47.086;15.920;2024-02-26T02:40:33;49.44;48.15;50.54;;
17594;Laerm;8916;47.086;15.920;2024-02-26T02:43:02;49.44;48.42;50.56;;
17594;Laerm;8916;47.086;15.920;2024-02-26T02:45:32;49.44;48.26;50.44;;
17594;Laerm;8916;47.086;15.920;2024-02-26T02:48:01;49.44;48.34;50.51;;
17594;Laerm;8916;47.086;15.920;2024-02-26T02:50:30;49.44;48.43;50.46;;
17594;Laerm;8916;47.086;15.920;2024-02-26T02:53:00;49.44;48.32;50.65;;
17594;Laerm;8916;47.086;15.920;2024-02-26T02:55:29;49.43;48.37;50.50;;
17594;Laerm;8916;47.086;15.920;2024-02-26T02:57:59;49.44;48.28;50.85;;
17594;Laerm;8916;47.086;15.920;2024-02-26T03:00:28;49.44;48.15;50.61;;
17594;Laerm;8916;47.086;15.920;2024-02-26T03:02:57;49.44;48.20;50.43;;
17594;Laerm;8916;47.086;15.920;2024-02-26T03:05:26;49.45;48.26;50.56;;
17594;Laerm;8916;47.086;15.920;2024-02-26T03:07:55;49.45;48.46;50.49;;
17594;Laerm;8916;47.086;15.920;2024-02-26T03:10:25;49.45;48.39;50.43;;
17594;Laerm;8916;47.086;15.920;2024-02-26T03:12:54;49.45;48.10;50.70;;
17594;Laerm;8916;47.086;15.920;2024-02-26T03:15:24;49.44;48.40;50.59;;
17594;Laerm;8916;47.086;15.920;2024-02-26T03:17:53;49.44;48.52;50.68;;
17594;Laerm;8916;47.086;15.920;2024-02-26T03:20:22;49.45;48.40;50.67;;
17594;Laerm;8916;47.086;15.920;2024-02-26T03:22:51;49.44;48.32;50.64;;
17594;Laerm;8916;47.086;15.920;2024-02-26T03:25:20;49.45;48.39;50.54;;
17594;Laerm;8916;47.086;15.920;2024-02-26T03:27:50;49.44;48.21;50.45;;
17594;Laerm;8916;47.086;15.920;2024-02-26T03:30:19;49.44;48.31;50.45;;
17594;Laerm;8916;47.086;15.920;2024-02-26T03:32:48;49.44;48.29;50.51;;
17594;Laerm;8916;47.086;15.920;2024-02-26T03:35:17;49.44;48.12;50.43;;
17594;Laerm;8916;47.086;15.920;2024-02-26T03:37:46;49.44;48.42;50.48;;
17594;Laerm;8916;47.086;15.920;2024-02-26T03:40:18;49.45;48.26;50.46;;
17594;Laerm;8916;47.086;15.920;2024-02-26T03:42:47;49.45;48.20;50.43;;
17594;Laerm;8916;47.086;15.920;2024-02-26T03:45:17;49.45;48.10;50.47;;
17594;Laerm;8916;47.086;15.920;2024-02-26T03:47:46;49.45;48.26;50.74;;
17594;Laerm;8916;47.086;15.920;2024-02-26T03:50:16;49.46;48.44;50.79;;
17594;Laerm;8916;47.086;15.920;2024-02-26T03:52:45;49.45;48.34;50.54;;
17594;Laerm;8916;47.086;15.920;2024-02-26T03:55:14;49.46;48.48;50.76;;
17594;Laerm;8916;47.086;15.920;2024-02-26T03:57:43;49.46;48.26;50.49;;
17594;Laerm;8916;47.086;15.920;2024-02-26T04:00:13;49.45;48.31;50.55;;
17594;Laerm;8916;47.086;15.920;2024-02-26T04:02:44;49.45;48.43;50.61;;
17594;Laerm;8916;47.086;15.920;2024-02-26T04:05:13;49.45;48.32;50.64;;
17594;Laerm;8916;47.086;15.920;2024-02-26T04:07:43;49.46;48.51;50.42;;
17594;Laerm;8916;47.086;15.920;2024-02-26T04:10:12;49.46;48.28;50.56;;
17594;Laerm;8916;47.086;15.920;2024-02-26T04:12:42;49.47;48.28;50.61;;
17594;Laerm;8916;47.086;15.920;2024-02-26T04:15:11;49.46;48.13;50.62;;
17594;Laerm;8916;47.086;15.920;2024-02-26T04:17:41;49.46;48.40;50.92;;
17594;Laerm;8916;47.086;15.920;2024-02-26T04:20:15;49.46;48.34;50.61;;
17594;Laerm;8916;47.086;15.920;2024-02-26T04:22:45;49.46;48.28;50.52;;
17594;Laerm;8916;47.086;15.920;2024-02-26T04:25:14;49.48;48.46;50.57;;
17594;Laerm;8916;47.086;15.920;2024-02-26T04:27:43;49.47;48.46;50.61;;
17594;Laerm;8916;47.086;15.920;2024-02-26T04:30:12;49.47;48.42;50.53;;
17594;Laerm;8916;47.086;15.920;2024-02-26T04:32:42;49.49;48.40;50.60;;
17594;Laerm;8916;47.086;15.920;2024-02-26T04:35:11;49.47;48.25;50.48;;
17594;Laerm;8916;47.086;15.920;2024-02-26T04:37:41;49.48;48.39;50.50;;
17594;Laerm;8916;47.086;15.920;2024-02-26T04:40:11;49.47;48.54;50.58;;
17594;Laerm;8916;47.086;15.920;2024-02-26T04:42:40;49.47;48.31;50.52;;
17594;Laerm;8916;47.086;15.920;2024-02-26T04:45:09;49.48;48.46;50.58;;
17594;Laerm;8916;47.086;15.920;2024-02-26T04:47:38;49.47;48.36;50.50;;
17594;Laerm;8916;47.086;15.920;2024-02-26T04:50:08;49.48;48.32;50.45;;
17594;Laerm;8916;47.086;15.920;2024-02-26T04:52:37;49.48;48.34;50.50;;
17594;Laerm;8916;47.086;15.920;2024-02-26T04:55:08;49.47;48.26;50.40;;
17594;Laerm;8916;47.086;15.920;2024-02-26T04:57:37;49.47;48.48;50.95;;
17594;Laerm;8916;47.086;15.920;2024-02-26T05:00:07;49.47;48.34;50.65;;
17594;Laerm;8916;47.086;15.920;2024-02-26T05:02:37;49.46;48.37;50.61;;
17594;Laerm;8916;47.086;15.920;2024-02-26T05:05:07;49.47;48.21;50.77;;
17594;Laerm;8916;47.086;15.920;2024-02-26T05:07:40;49.46;48.45;50.51;;
17594;Laerm;8916;47.086;15.920;2024-02-26T05:10:11;49.48;48.46;50.86;;
17594;Laerm;8916;47.086;15.920;2024-02-26T05:12:40;49.48;48.52;50.46;;
17594;Laerm;8916;47.086;15.920;2024-02-26T05:15:10;49.47;48.32;50.57;;
17594;Laerm;8916;47.086;15.920;2024-02-26T05:17:46;49.48;48.42;50.48;;
17594;Laerm;8916;47.086;15.920;2024-02-26T05:20:16;49.49;48.25;50.51;;
17594;Laerm;8916;47.086;15.920;2024-02-26T05:22:45;49.48;48.31;50.61;;
17594;Laerm;8916;47.086;15.920;2024-02-26T05:25:16;49.47;48.31;50.52;;
17594;Laerm;8916;47.086;15.920;2024-02-26T05:27:46;49.47;48.25;50.57;;
17594;Laerm;8916;47.086;15.920;2024-02-26T05:30:16;49.47;48.42;50.56;;
17594;Laerm;8916;47.086;15.920;2024-02-26T05:32:45;49.45;48.26;50.50;;
17594;Laerm;8916;47.086;15.920;2024-02-26T05:35:15;49.47;48.26;50.53;;
17594;Laerm;8916;47.086;15.920;2024-02-26T05:37:44;49.46;48.36;50.56;;
17594;Laerm;8916;47.086;15.920;2024-02-26T05:40:13;49.47;48.48;50.56;;
17594;Laerm;8916;47.086;15.920;2024-02-26T05:42:44;49.47;48.29;50.58;;
17594;Laerm;8916;47.086;15.920;2024-02-26T05:45:13;49.46;48.41;50.49;;
17594;Laerm;8916;47.086;15.920;2024-02-26T05:47:42;49.47;48.00;50.57;;
17594;Laerm;8916;47.086;15.920;2024-02-26T05:50:11;49.46;48.29;50.62;;
17594;Laerm;8916;47.086;15.920;2024-02-26T05:52:43;49.48;48.28;50.69;;
17594;Laerm;8916;47.086;15.920;2024-02-26T05:55:12;49.47;48.43;50.56;;
17594;Laerm;8916;47.086;15.920;2024-02-26T05:57:41;49.48;48.42;50.67;;
17594;Laerm;8916;47.086;15.920;2024-02-26T06:00:13;49.48;48.42;50.52;;
17594;Laerm;8916;47.086;15.920;2024-02-26T06:02:42;49.48;48.48;50.44;;
17594;Laerm;8916;47.086;15.920;2024-02-26T06:05:11;49.46;48.32;50.66;;
17594;Laerm;8916;47.086;15.920;2024-02-26T06:07:40;49.46;48.36;50.56;;
17594;Laerm;8916;47.086;15.920;2024-02-26T06:10:10;49.46;48.18;50.48;;
17594;Laerm;8916;47.086;15.920;2024-02-26T06:12:41;49.47;48.29;50.75;;
17594;Laerm;8916;47.086;15.920;2024-02-26T06:15:12;49.45;48.40;50.61;;
17594;Laerm;8916;47.086;15.920;2024-02-26T06:17:41;49.45;48.32;50.55;;
17594;Laerm;8916;47.086;15.920;2024-02-26T06:20:11;49.44;48.23;50.52;;
17594;Laerm;8916;47.086;15.920;2024-02-26T06:22:41;49.44;48.45;50.53;;
17594;Laerm;8916;47.086;15.920;2024-02-26T06:25:10;49.43;48.29;50.63;;
17594;Laerm;8916;47.086;15.920;2024-02-26T06:27:39;49.38;48.31;50.49;;
17594;Laerm;8916;47.086;15.920;2024-02-26T06:30:09;49.35;48.12;50.56;;
17594;Laerm;8916;47.086;15.920;2024-02-26T06:32:40;49.33;48.26;50.49;;
17594;Laerm;8916;47.086;15.920;2024-02-26T06:35:09;49.30;48.00;50.54;;
17594;Laerm;8916;47.086;15.920;2024-02-26T06:37:39;49.30;48.07;50.41;;
17594;Laerm;8916;47.086;15.920;2024-02-26T06:40:09;49.29;48.02;50.34;;
17594;Laerm;8916;47.086;15.920;2024-02-26T06:42:38;49.29;48.34;50.35;;
17594;Laerm;8916;47.086;15.920;2024-02-26T06:45:08;49.30;48.16;50.57;;
17594;Laerm;8916;47.086;15.920;2024-02-26T06:47:37;49.30;48.20;50.50;;
17594;Laerm;8916;47.086;15.920;2024-02-26T06:50:09;49.31;48.18;50.46;;
17594;Laerm;8916;47.086;15.920;2024-02-26T06:52:38;49.30;48.21;50.48;;
17594;Laerm;8916;47.086;15.920;2024-02-26T06:55:08;49.29;48.16;50.49;;
17594;Laerm;8916;47.086;15.920;2024-02-26T06:57:37;49.29;48.16;50.38;;
17594;Laerm;8916;47.086;15.920;2024-02-26T07:00:07;49.28;48.08;50.34;;
17594;Laerm;8916;47.086;15.920;2024-02-26T07:02:36;49.29;48.31;50.47;;
17594;Laerm;8916;47.086;15.920;2024-02-26T07:05:08;49.29;48.12;50.37;;
17594;Laerm;8916;47.086;15.920;2024-02-26T07:07:38;49.28;48.16;50.64;;
17594;Laerm;8916;47.086;15.920;2024-02-26T07:10:08;49.29;48.08;50.41;;
17594;Laerm;8916;47.086;15.920;2024-02-26T07:12:40;49.30;48.13;51.58;;
17594;Laerm;8916;47.086;15.920;2024-02-26T07:15:11;49.30;48.26;50.40;;
17594;Laerm;8916;47.086;15.920;2024-02-26T07:17:40;49.30;48.16;50.57;;
17594;Laerm;8916;47.086;15.920;2024-02-26T07:20:16;49.29;48.07;50.43;;
17594;Laerm;8916;47.086;15.920;2024-02-26T07:22:46;49.28;48.16;50.59;;
17594;Laerm;8916;47.086;15.920;2024-02-26T07:25:15;49.28;48.03;50.59;;
17594;Laerm;8916;47.086;15.920;2024-02-26T07:27:44;49.28;47.91;50.52;;
17594;Laerm;8916;47.086;15.920;2024-02-26T07:30:14;49.29;48.20;50.34;;
17594;Laerm;8916;47.086;15.920;2024-02-26T07:32:44;49.27;48.16;50.35;;
17594;Laerm;8916;47.086;15.920;2024-02-26T07:35:19;49.28;48.18;50.31;;
17594;Laerm;8916;47.086;15.920;2024-02-26T07:37:48;49.27;48.16;50.54;;
17594;Laerm;8916;47.086;15.920;2024-02-26T07:40:18;49.24;48.02;50.60;;
17594;Laerm;8916;47.086;15.920;2024-02-26T07:42:47;49.23;48.16;50.28;;
17594;Laerm;8916;47.086;15.920;2024-02-26T07:45:16;49.24;47.96;50.39;;
17594;Laerm;8916;47.086;15.920;2024-02-26T07:47:47;49.22;47.91;53.72;;
17594;Laerm;8916;47.086;15.920;2024-02-26T07:50:16;49.21;48.20;50.54;;
17594;Laerm;8916;47.086;15.920;2024-02-26T07:52:48;49.21;48.10;50.56;;
17594;Laerm;8916;47.086;15.920;2024-02-26T07:55:19;49.20;48.20;52.51;;
17594;Laerm;8916;47.086;15.920;2024-02-26T07:57:48;49.21;48.15;50.91;;
17594;Laerm;8916;47.086;15.920;2024-02-26T08:00:17;49.19;47.65;53.34;;
17594;Laerm;8916;47.086;15.920;2024-02-26T08:02:47;49.17;48.07;52.48;;
17594;Laerm;8916;47.086;15.920;2024-02-26T08:05:16;49.20;48.07;50.64;;
17594;Laerm;8916;47.086;15.920;2024-02-26T08:07:45;49.18;48.05;54.38;;
17594;Laerm;8916;47.086;15.920;2024-02-26T08:10:16;49.17;48.12;50.39;;
17594;Laerm;8916;47.086;15.920;2024-02-26T08:12:44;49.15;48.00;51.37;;
17594;Laerm;8916;47.086;15.920;2024-02-26T08:15:14;49.13;48.00;50.28;;
17594;Laerm;8916;47.086;15.920;2024-02-26T08:17:43;49.13;47.86;53.60;;
17594;Laerm;8916;47.086;15.920;2024-02-26T08:20:12;49.14;48.05;51.14;;
17594;Laerm;8916;47.086;15.920;2024-02-26T08:22:41;49.14;47.81;53.74;;
17594;Laerm;8916;47.086;15.920;2024-02-26T08:25:10;49.08;48.05;52.17;;
17594;Laerm;8916;47.086;15.920;2024-02-26T08:27:40;49.10;47.91;52.44;;
17594;Laerm;8916;47.086;15.920;2024-02-26T08:30:11;49.09;47.86;53.16;;
17594;Laerm;8916;47.086;15.920;2024-02-26T08:32:41;49.13;47.84;55.02;;
17594;Laerm;8916;47.086;15.920;2024-02-26T08:35:10;49.15;47.90;54.26;;
17594;Laerm;8916;47.086;15.920;2024-02-26T08:37:39;49.11;47.90;54.60;;
17594;Laerm;8916;47.086;15.920;2024-02-26T08:40:09;49.11;47.88;53.96;;
17594;Laerm;8916;47.086;15.920;2024-02-26T08:42:40;49.09;48.05;52.71;;
17594;Laerm;8916;47.086;15.920;2024-02-26T08:45:11;49.10;47.74;50.33;;
17594;Laerm;8916;47.086;15.920;2024-02-26T08:47:40;49.06;47.93;50.64;;
17594;Laerm;8916;47.086;15.920;2024-02-26T08:50:09;49.08;47.74;54.84;;
17594;Laerm;8916;47.086;15.920;2024-02-26T08:52:39;49.09;47.68;55.68;;
17594;Laerm;8916;47.086;15.920;2024-02-26T08:55:09;49.07;47.88;54.87;;
17594;Laerm;8916;47.086;15.920;2024-02-26T08:57:38;49.09;47.74;56.04;;
17594;Laerm;8916;47.086;15.920;2024-02-26T09:00:10;49.11;47.74;56.88;;
17594;Laerm;8916;47.086;15.920;2024-02-26T09:02:40;49.10;47.96;55.91;;
17594;Laerm;8916;47.086;15.920;2024-02-26T09:05:10;49.10;47.96;53.47;;
17594;Laerm;8916;47.086;15.920;2024-02-26T09:07:39;49.09;47.76;50.54;;
17594;Laerm;8916;47.086;15.920;2024-02-26T09:10:09;49.08;47.83;55.23;;
17594;Laerm;8916;47.086;15.920;2024-02-26T09:12:38;49.10;47.68;57.69;;
17594;Laerm;8916;47.086;15.920;2024-02-26T09:15:09;49.12;47.83;58.01;;
17594;Laerm;8916;47.086;15.920;2024-02-26T09:17:39;49.12;47.65;54.19;;
17594;Laerm;8916;47.086;15.920;2024-02-26T09:20:08;49.12;47.54;55.74;;
17594;Laerm;8916;47.086;15.920;2024-02-26T09:22:38;49.12;47.79;55.97;;
17594;Laerm;8916;47.086;15.920;2024-02-26T09:25:08;49.06;47.79;58.22;;
17594;Laerm;8916;47.086;15.920;2024-02-26T09:27:37;49.14;47.95;56.04;;
17594;Laerm;8916;47.086;15.920;2024-02-26T09:30:13;49.19;47.70;55.38;;
17594;Laerm;8916;47.086;15.920;2024-02-26T09:32:46;49.22;47.76;58.31;;
17594;Laerm;8916;47.086;15.920;2024-02-26T09:35:16;49.11;47.96;50.97;;
17594;Laerm;8916;47.086;15.920;2024-02-26T09:37:45;49.15;47.91;55.10;;
17594;Laerm;8916;47.086;15.920;2024-02-26T09:40:14;49.13;47.74;57.78;;
17594;Laerm;8916;47.086;15.920;2024-02-26T09:42:45;49.13;47.83;57.50;;
17594;Laerm;8916;47.086;15.920;2024-02-26T09:45:19;49.13;47.96;58.18;;
17594;Laerm;8916;47.086;15.920;2024-02-26T09:47:50;49.11;47.81;50.77;;
17594;Laerm;8916;47.086;15.920;2024-02-26T09:50:21;49.12;47.72;56.88;;
17594;Laerm;8916;47.086;15.920;2024-02-26T09:52:51;49.13;47.86;57.87;;
17594;Laerm;8916;47.086;15.920;2024-02-26T09:55:21;49.17;47.93;57.79;;
17594;Laerm;8916;47.086;15.920;2024-02-26T09:57:51;49.15;47.70;56.06;;
17594;Laerm;8916;47.086;15.920;2024-02-26T10:00:22;49.15;47.83;56.40;;
17594;Laerm;8916;47.086;15.920;2024-02-26T10:02:52;49.15;47.77;56.38;;
17594;Laerm;8916;47.086;15.920;2024-02-26T10:05:24;49.13;47.67;58.57;;
17594;Laerm;8916;47.086;15.920;2024-02-26T10:07:55;49.11;47.74;56.59;;
17594;Laerm;8916;47.086;15.920;2024-02-26T10:10:25;49.51;47.67;59.36;;
17594;Laerm;8916;47.086;15.920;2024-02-26T10:12:56;49.49;47.81;58.67;;
17594;Laerm;8916;47.086;15.920;2024-02-26T10:15:26;49.43;47.81;59.05;;
17594;Laerm;8916;47.086;15.920;2024-02-26T10:17:55;49.45;47.76;57.19;;
17594;Laerm;8916;47.086;15.920;2024-02-26T10:20:24;49.47;47.70;57.44;;
17594;Laerm;8916;47.086;15.920;2024-02-26T10:22:56;49.46;47.86;57.90;;
17594;Laerm;8916;47.086;15.920;2024-02-26T10:25:23;49.46;47.74;57.47;;
17594;Laerm;8916;47.086;15.920;2024-02-26T10:27:53;49.48;47.67;58.50;;
17594;Laerm;8916;47.086;15.920;2024-02-26T10:30:22;49.50;47.79;58.69;;
17594;Laerm;8916;47.086;15.920;2024-02-26T10:32:56;49.58;47.96;57.86;;
17594;Laerm;8916;47.086;15.920;2024-02-26T10:35:25;49.53;47.26;57.37;;
17594;Laerm;8916;47.086;15.920;2024-02-26T10:37:55;49.69;47.77;59.67;;
17594;Laerm;8916;47.086;15.920;2024-02-26T10:40:24;49.66;47.86;58.35;;
17594;Laerm;8916;47.086;15.920;2024-02-26T10:42:53;49.54;47.70;57.93;;
17594;Laerm;8916;47.086;15.920;2024-02-26T10:45:22;49.54;47.57;57.80;;
17594;Laerm;8916;47.086;15.920;2024-02-26T10:47:51;49.52;47.81;57.78;;
17594;Laerm;8916;47.086;15.920;2024-02-26T10:50:21;49.61;47.70;60.07;;
17594;Laerm;8916;47.086;15.920;2024-02-26T10:52:51;49.46;47.93;57.57;;
17594;Laerm;8916;47.086;15.920;2024-02-26T10:55:21;49.35;47.86;52.08;;
17594;Laerm;8916;47.086;15.920;2024-02-26T10:57:52;49.31;47.91;57.08;;
17594;Laerm;8916;47.086;15.920;2024-02-26T11:00:22;49.39;47.98;59.16;;
17594;Laerm;8916;47.086;15.920;2024-02-26T11:02:52;49.35;47.86;58.48;;
17594;Laerm;8916;47.086;15.920;2024-02-26T11:05:23;49.32;47.95;56.57;;
17594;Laerm;8916;47.086;15.920;2024-02-26T11:07:53;49.37;47.88;56.66;;
17594;Laerm;8916;47.086;15.920;2024-02-26T11:10:22;49.38;47.83;56.80;;
17594;Laerm;8916;47.086;15.920;2024-02-26T11:12:54;49.39;47.55;57.22;;
17594;Laerm;8916;47.086;15.920;2024-02-26T11:15:24;49.35;47.81;58.95;;
17594;Laerm;8916;47.086;15.920;2024-02-26T11:17:55;49.30;47.77;58.42;;
17594;Laerm;8916;47.086;15.920;2024-02-26T11:20:28;49.33;47.86;57.92;;
17594;Laerm;8916;47.086;15.920;2024-02-26T11:22:57;49.28;47.86;58.70;;
17594;Laerm;8916;47.086;15.920;2024-02-26T11:25:26;49.31;47.93;58.72;;
17594;Laerm;8916;47.086;15.920;2024-02-26T11:28:00;49.31;47.83;56.90;;
17594;Laerm;8916;47.086;15.920;2024-02-26T11:30:33;49.26;47.91;57.13;;
17594;Laerm;8916;47.086;15.920;2024-02-26T11:33:04;49.31;47.91;56.57;;
17594;Laerm;8916;47.086;15.920;2024-02-26T11:35:38;49.32;47.96;58.86;;
17594;Laerm;8916;47.086;15.920;2024-02-26T11:38:07;49.30;47.84;58.17;;
17594;Laerm;8916;47.086;15.920;2024-02-26T11:40:38;49.38;47.72;56.85;;
17594;Laerm;8916;47.086;15.920;2024-02-26T11:43:08;49.36;47.72;57.13;;
17594;Laerm;8916;47.086;15.920;2024-02-26T11:45:50;49.28;47.63;57.16;;
17594;Laerm;8916;47.086;15.920;2024-02-26T11:48:22;49.28;47.61;57.36;;
17594;Laerm;8916;47.086;15.920;2024-02-26T11:50:54;49.38;47.91;57.16;;
17594;Laerm;8916;47.086;15.920;2024-02-26T11:53:25;49.34;47.84;56.99;;
17594;Laerm;8916;47.086;15.920;2024-02-26T11:56:22;49.34;47.83;58.31;;
17594;Laerm;8916;47.086;15.920;2024-02-26T11:59:04;49.32;47.81;58.08;;
17594;Laerm;8916;47.086;15.920;2024-02-26T12:01:42;49.37;47.93;59.34;;
17594;Laerm;8916;47.086;15.920;2024-02-26T12:04:13;49.37;47.88;57.12;;
17594;Laerm;8916;47.086;15.920;2024-02-26T12:06:49;49.35;47.86;57.92;;
17594;Laerm;8916;47.086;15.920;2024-02-26T12:09:33;49.37;47.61;59.85;;
17594;Laerm;8916;47.086;15.920;2024-02-26T12:12:04;49.52;47.68;59.71;;
17594;Laerm;8916;47.086;15.920;2024-02-26T12:14:35;49.54;47.76;60.43;;
17594;Laerm;8916;47.086;15.920;2024-02-26T12:17:07;49.64;47.81;58.04;;
17594;Laerm;8916;47.086;15.920;2024-02-26T12:19:36;49.61;47.81;57.83;;
17594;Laerm;8916;47.086;15.920;2024-02-26T12:22:14;49.58;47.75;58.69;;
17594;Laerm;8916;47.086;15.920;2024-02-26T12:24:43;49.53;47.74;58.09;;
17594;Laerm;8916;47.086;15.920;2024-02-26T12:27:12;49.55;47.81;58.11;;
17594;Laerm;8916;47.086;15.920;2024-02-26T12:29:43;49.35;47.81;59.62;;
17594;Laerm;8916;47.086;15.920;2024-02-26T12:32:12;49.61;47.65;57.96;;
17594;Laerm;8916;47.086;15.920;2024-02-26T12:34:41;49.51;47.77;57.86;;
17594;Laerm;8916;47.086;15.920;2024-02-26T12:37:13;49.47;47.88;57.59;;
17594;Laerm;8916;47.086;15.920;2024-02-26T12:39:42;49.53;47.57;57.79;;
17594;Laerm;8916;47.086;15.920;2024-02-26T12:42:11;50.00;47.91;60.08;;
17594;Laerm;8916;47.086;15.920;2024-02-26T12:44:40;53.01;47.86;60.50;;
17594;Laerm;8916;47.086;15.920;2024-02-26T12:47:09;52.79;48.02;59.89;;
17594;Laerm;8916;47.086;15.920;2024-02-26T12:49:47;52.69;48.16;60.27;;
17594;Laerm;8916;47.086;15.920;2024-02-26T12:52:18;52.31;47.76;59.81;;
17594;Laerm;8916;47.086;15.920;2024-02-26T12:54:48;52.44;48.00;60.75;;
17594;Laerm;8916;47.086;15.920;2024-02-26T12:57:17;52.26;48.08;59.47;;
17594;Laerm;8916;47.086;15.920;2024-02-26T12:59:46;52.30;47.91;59.66;;
17594;Laerm;8916;47.086;15.920;2024-02-26T13:02:15;52.40;47.98;59.69;;
17594;Laerm;8916;47.086;15.920;2024-02-26T13:04:45;50.25;47.74;59.21;;
17594;Laerm;8916;47.086;15.920;2024-02-26T13:07:14;49.57;47.86;56.57;;
17594;Laerm;8916;47.086;15.920;2024-02-26T13:09:44;49.65;47.86;56.86;;
17594;Laerm;8916;47.086;15.920;2024-02-26T13:12:13;49.76;47.81;57.35;;
17594;Laerm;8916;47.086;15.920;2024-02-26T13:14:42;49.88;47.77;56.97;;
17594;Laerm;8916;47.086;15.920;2024-02-26T13:17:11;49.59;47.74;57.08;;
17594;Laerm;8916;47.086;15.920;2024-02-26T13:19:49;49.76;47.72;58.38;;
17594;Laerm;8916;47.086;15.920;2024-02-26T13:22:21;49.65;47.67;57.23;;
17594;Laerm;8916;47.086;15.920;2024-02-26T13:24:56;49.78;47.67;57.82;;
17594;Laerm;8916;47.086;15.920;2024-02-26T13:27:26;49.70;47.68;58.28;;
17594;Laerm;8916;47.086;15.920;2024-02-26T13:30:08;49.60;47.68;57.37;;
17594;Laerm;8916;47.086;15.920;2024-02-26T13:32:39;49.60;47.68;57.58;;
17594;Laerm;8916;47.086;15.920;2024-02-26T13:35:10;49.51;47.76;56.78;;
17594;Laerm;8916;47.086;15.920;2024-02-26T13:37:40;49.15;47.57;56.88;;
17594;Laerm;8916;47.086;15.920;2024-02-26T13:40:12;49.12;47.68;57.53;;
17594;Laerm;8916;47.086;15.920;2024-02-26T13:42:41;49.07;47.72;56.65;;
17594;Laerm;8916;47.086;15.920;2024-02-26T13:45:10;49.77;48.08;57.46;;
17594;Laerm;8916;47.086;15.920;2024-02-26T13:47:39;49.74;47.81;56.85;;
17594;Laerm;8916;47.086;15.920;2024-02-26T13:50:09;50.18;47.84;58.51;;
17594;Laerm;8916;47.086;15.920;2024-02-26T13:52:39;50.36;47.86;58.75;;
17594;Laerm;8916;47.086;15.920;2024-02-26T13:55:08;49.66;47.83;56.91;;
17594;Laerm;8916;47.086;15.920;2024-02-26T13:57:39;50.09;47.91;57.86;;
17594;Laerm;8916;47.086;15.920;2024-02-26T14:00:10;49.96;47.65;57.86;;